sensor_id;sensor_type;location;lat;lon;timestamp;temperature;humidity
69281;SHT31;56392;51.082;17.080;2023-04-29T00:02:29;13.66;60.15
69281;SHT31;56392;51.082;17.080;2023-04-29T00:07:54;13.59;60.17
69281;SHT31;56392;51.082;17.080;2023-04-29T00:13:18;13.47;60.46
69281;SHT31;56392;51.082;17.080;2023-04-29T00:18:41;13.37;60.76
69281;SHT31;56392;51.082;17.080;2023-04-29T00:24:06;13.40;60.71
69281;SHT31;56392;51.082;17.080;2023-04-29T00:29:29;13.32;60.95
69281;SHT31;56392;51.082;17.080;2023-04-29T00:34:52;13.27;61.03
69281;SHT31;56392;51.082;17.080;2023-04-29T00:40:17;13.29;61.59
69281;SHT31;56392;51.082;17.080;2023-04-29T00:45:40;13.10;62.78
69281;SHT31;56392;51.082;17.080;2023-04-29T00:51:04;12.96;63.55
69281;SHT31;56392;51.082;17.080;2023-04-29T00:56:30;12.93;63.29
69281;SHT31;56392;51.082;17.080;2023-04-29T01:01:54;13.02;63.98
69281;SHT31;56392;51.082;17.080;2023-04-29T01:07:21;12.88;64.05
69281;SHT31;56392;51.082;17.080;2023-04-29T01:12:53;12.77;64.15
69281;SHT31;56392;51.082;17.080;2023-04-29T01:18:25;12.88;63.78
69281;SHT31;56392;51.082;17.080;2023-04-29T01:23:51;12.82;64.07
69281;SHT31;56392;51.082;17.080;2023-04-29T01:29:21;12.78;64.68
69281;SHT31;56392;51.082;17.080;2023-04-29T01:34:52;12.71;64.31
69281;SHT31;56392;51.082;17.080;2023-04-29T01:40:21;12.67;64.32
69281;SHT31;56392;51.082;17.080;2023-04-29T01:45:45;12.61;64.33
69281;SHT31;56392;51.082;17.080;2023-04-29T01:51:08;12.58;64.63
69281;SHT31;56392;51.082;17.080;2023-04-29T01:56:33;12.51;64.42
69281;SHT31;56392;51.082;17.080;2023-04-29T02:01:56;12.54;64.22
69281;SHT31;56392;51.082;17.080;2023-04-29T02:07:19;12.44;64.47
69281;SHT31;56392;51.082;17.080;2023-04-29T02:12:43;12.47;64.11
69281;SHT31;56392;51.082;17.080;2023-04-29T02:18:07;12.47;63.94
69281;SHT31;56392;51.082;17.080;2023-04-29T02:23:30;12.47;63.90
69281;SHT31;56392;51.082;17.080;2023-04-29T02:28:54;12.48;63.86
69281;SHT31;56392;51.082;17.080;2023-04-29T02:34:18;12.41;63.99
69281;SHT31;56392;51.082;17.080;2023-04-29T02:39:41;12.38;64.17
69281;SHT31;56392;51.082;17.080;2023-04-29T02:45:06;12.36;64.27
69281;SHT31;56392;51.082;17.080;2023-04-29T02:50:30;12.33;64.54
69281;SHT31;56392;51.082;17.080;2023-04-29T02:55:53;12.37;64.35
69281;SHT31;56392;51.082;17.080;2023-04-29T03:01:17;12.41;64.51
69281;SHT31;56392;51.082;17.080;2023-04-29T03:06:40;12.37;64.21
69281;SHT31;56392;51.082;17.080;2023-04-29T03:12:04;12.37;64.12
69281;SHT31;56392;51.082;17.080;2023-04-29T03:17:29;12.40;64.12
69281;SHT31;56392;51.082;17.080;2023-04-29T03:22:53;12.40;64.36
69281;SHT31;56392;51.082;17.080;2023-04-29T03:28:15;12.42;64.63
69281;SHT31;56392;51.082;17.080;2023-04-29T03:33:40;12.44;64.39
69281;SHT31;56392;51.082;17.080;2023-04-29T03:39:03;12.41;64.23
69281;SHT31;56392;51.082;17.080;2023-04-29T03:44:26;12.38;64.54
69281;SHT31;56392;51.082;17.080;2023-04-29T03:49:51;12.38;64.64
69281;SHT31;56392;51.082;17.080;2023-04-29T03:55:14;12.31;64.80
69281;SHT31;56392;51.082;17.080;2023-04-29T04:00:37;12.30;64.94
69281;SHT31;56392;51.082;17.080;2023-04-29T04:06:01;12.24;65.08
69281;SHT31;56392;51.082;17.080;2023-04-29T04:11:24;12.23;65.58
69281;SHT31;56392;51.082;17.080;2023-04-29T04:16:47;12.24;65.59
69281;SHT31;56392;51.082;17.080;2023-04-29T04:22:12;12.31;66.04
69281;SHT31;56392;51.082;17.080;2023-04-29T04:27:37;12.36;65.93
69281;SHT31;56392;51.082;17.080;2023-04-29T04:33:00;12.41;65.79
69281;SHT31;56392;51.082;17.080;2023-04-29T04:38:25;12.44;65.80
69281;SHT31;56392;51.082;17.080;2023-04-29T04:43:48;12.38;66.11
69281;SHT31;56392;51.082;17.080;2023-04-29T04:49:12;12.40;66.30
69281;SHT31;56392;51.082;17.080;2023-04-29T04:54:36;12.47;66.51
69281;SHT31;56392;51.082;17.080;2023-04-29T04:59:59;12.52;66.63
69281;SHT31;56392;51.082;17.080;2023-04-29T05:05:24;12.67;66.43
69281;SHT31;56392;51.082;17.080;2023-04-29T05:10:49;12.71;66.26
69281;SHT31;56392;51.082;17.080;2023-04-29T05:16:12;12.74;66.18
69281;SHT31;56392;51.082;17.080;2023-04-29T05:21:36;12.78;65.97
69281;SHT31;56392;51.082;17.080;2023-04-29T05:27:01;12.82;66.05
69281;SHT31;56392;51.082;17.080;2023-04-29T05:32:25;12.89;66.20
69281;SHT31;56392;51.082;17.080;2023-04-29T05:37:48;12.99;65.85
69281;SHT31;56392;51.082;17.080;2023-04-29T05:43:12;13.08;65.79
69281;SHT31;56392;51.082;17.080;2023-04-29T05:48:35;13.13;65.87
69281;SHT31;56392;51.082;17.080;2023-04-29T05:53:58;13.32;66.42
69281;SHT31;56392;51.082;17.080;2023-04-29T05:59:23;13.51;66.55
69281;SHT31;56392;51.082;17.080;2023-04-29T06:04:46;13.70;66.46
69281;SHT31;56392;51.082;17.080;2023-04-29T06:10:09;13.88;66.55
69281;SHT31;56392;51.082;17.080;2023-04-29T06:15:33;14.01;66.08
69281;SHT31;56392;51.082;17.080;2023-04-29T06:20:56;14.12;65.95
69281;SHT31;56392;51.082;17.080;2023-04-29T06:26:20;14.21;65.74
69281;SHT31;56392;51.082;17.080;2023-04-29T06:31:44;14.28;65.56
69281;SHT31;56392;51.082;17.080;2023-04-29T06:37:07;14.33;65.46
69281;SHT31;56392;51.082;17.080;2023-04-29T06:42:30;14.36;65.67
69281;SHT31;56392;51.082;17.080;2023-04-29T06:47:55;14.35;67.40
69281;SHT31;56392;51.082;17.080;2023-04-29T06:53:18;14.39;68.26
69281;SHT31;56392;51.082;17.080;2023-04-29T06:58:41;14.40;68.60
69281;SHT31;56392;51.082;17.080;2023-04-29T07:04:05;14.38;69.07
69281;SHT31;56392;51.082;17.080;2023-04-29T07:09:28;14.36;71.18
69281;SHT31;56392;51.082;17.080;2023-04-29T07:14:51;14.35;71.98
69281;SHT31;56392;51.082;17.080;2023-04-29T07:20:16;14.36;72.61
69281;SHT31;56392;51.082;17.080;2023-04-29T07:25:39;14.40;72.03
69281;SHT31;56392;51.082;17.080;2023-04-29T07:31:02;14.45;70.55
69281;SHT31;56392;51.082;17.080;2023-04-29T07:36:27;14.46;70.79
69281;SHT31;56392;51.082;17.080;2023-04-29T07:41:50;14.48;72.06
69281;SHT31;56392;51.082;17.080;2023-04-29T07:47:13;14.42;72.08
69281;SHT31;56392;51.082;17.080;2023-04-29T07:52:38;14.43;72.94
69281;SHT31;56392;51.082;17.080;2023-04-29T07:58:01;14.45;73.58
69281;SHT31;56392;51.082;17.080;2023-04-29T08:03:26;14.49;73.76
69281;SHT31;56392;51.082;17.080;2023-04-29T08:08:50;14.50;73.63
69281;SHT31;56392;51.082;17.080;2023-04-29T08:14:13;14.53;73.47
69281;SHT31;56392;51.082;17.080;2023-04-29T08:19:36;14.50;72.80
69281;SHT31;56392;51.082;17.080;2023-04-29T08:25:00;14.50;73.23
69281;SHT31;56392;51.082;17.080;2023-04-29T08:30:25;14.52;73.20
69281;SHT31;56392;51.082;17.080;2023-04-29T08:35:56;14.56;73.25
69281;SHT31;56392;51.082;17.080;2023-04-29T08:41:22;14.62;73.62
69281;SHT31;56392;51.082;17.080;2023-04-29T08:46:46;14.62;73.36
69281;SHT31;56392;51.082;17.080;2023-04-29T08:52:09;14.62;73.83
69281;SHT31;56392;51.082;17.080;2023-04-29T08:57:35;14.69;73.86
69281;SHT31;56392;51.082;17.080;2023-04-29T09:03:03;14.69;74.52
69281;SHT31;56392;51.082;17.080;2023-04-29T09:08:27;14.69;74.67
69281;SHT31;56392;51.082;17.080;2023-04-29T09:13:57;14.73;74.99
69281;SHT31;56392;51.082;17.080;2023-04-29T09:19:31;14.72;75.12
69281;SHT31;56392;51.082;17.080;2023-04-29T09:25:11;14.80;76.36
69281;SHT31;56392;51.082;17.080;2023-04-29T09:30:44;14.81;76.60
69281;SHT31;56392;51.082;17.080;2023-04-29T09:36:07;14.96;76.71
69281;SHT31;56392;51.082;17.080;2023-04-29T09:41:30;15.03;76.35
69281;SHT31;56392;51.082;17.080;2023-04-29T09:46:56;15.06;75.84
69281;SHT31;56392;51.082;17.080;2023-04-29T09:52:20;15.08;75.72
69281;SHT31;56392;51.082;17.080;2023-04-29T09:57:43;15.16;75.45
69281;SHT31;56392;51.082;17.080;2023-04-29T10:03:07;15.21;75.51
69281;SHT31;56392;51.082;17.080;2023-04-29T10:08:32;15.24;74.58
69281;SHT31;56392;51.082;17.080;2023-04-29T10:13:56;15.26;74.65
69281;SHT31;56392;51.082;17.080;2023-04-29T10:19:26;15.34;74.83
69281;SHT31;56392;51.082;17.080;2023-04-29T10:24:57;15.45;74.45
69281;SHT31;56392;51.082;17.080;2023-04-29T10:30:22;15.55;74.51
69281;SHT31;56392;51.082;17.080;2023-04-29T10:35:47;15.65;74.01
69281;SHT31;56392;51.082;17.080;2023-04-29T10:41:25;15.85;72.70
69281;SHT31;56392;51.082;17.080;2023-04-29T10:47:18;15.86;71.49
69281;SHT31;56392;51.082;17.080;2023-04-29T10:52:53;15.86;72.04
69281;SHT31;56392;51.082;17.080;2023-04-29T10:58:38;15.99;71.59
69281;SHT31;56392;51.082;17.080;2023-04-29T11:04:03;16.09;71.25
69281;SHT31;56392;51.082;17.080;2023-04-29T11:09:28;16.20;70.55
69281;SHT31;56392;51.082;17.080;2023-04-29T11:14:57;16.32;69.75
69281;SHT31;56392;51.082;17.080;2023-04-29T11:20:23;16.41;69.46
69281;SHT31;56392;51.082;17.080;2023-04-29T11:25:48;16.65;68.41
69281;SHT31;56392;51.082;17.080;2023-04-29T11:31:11;16.80;68.06
69281;SHT31;56392;51.082;17.080;2023-04-29T11:36:34;16.88;67.68
69281;SHT31;56392;51.082;17.080;2023-04-29T11:42:04;16.92;67.18
69281;SHT31;56392;51.082;17.080;2023-04-29T11:47:27;16.88;67.00
69281;SHT31;56392;51.082;17.080;2023-04-29T11:52:51;16.88;66.89
69281;SHT31;56392;51.082;17.080;2023-04-29T11:58:16;16.87;66.89
69281;SHT31;56392;51.082;17.080;2023-04-29T12:03:39;17.05;65.34
69281;SHT31;56392;51.082;17.080;2023-04-29T12:09:02;17.29;65.25
69281;SHT31;56392;51.082;17.080;2023-04-29T12:14:27;17.33;64.38
69281;SHT31;56392;51.082;17.080;2023-04-29T12:19:50;17.39;64.32
69281;SHT31;56392;51.082;17.080;2023-04-29T12:25:14;17.42;64.89
69281;SHT31;56392;51.082;17.080;2023-04-29T12:30:40;17.42;65.36
69281;SHT31;56392;51.082;17.080;2023-04-29T12:36:03;17.39;64.92
69281;SHT31;56392;51.082;17.080;2023-04-29T12:41:36;17.35;66.16
69281;SHT31;56392;51.082;17.080;2023-04-29T12:47:07;17.38;68.83
69281;SHT31;56392;51.082;17.080;2023-04-29T12:52:30;17.43;68.76
69281;SHT31;56392;51.082;17.080;2023-04-29T12:57:53;17.47;68.33
69281;SHT31;56392;51.082;17.080;2023-04-29T13:03:17;17.56;67.81
69281;SHT31;56392;51.082;17.080;2023-04-29T13:08:40;17.59;67.21
69281;SHT31;56392;51.082;17.080;2023-04-29T13:14:03;17.62;66.88
69281;SHT31;56392;51.082;17.080;2023-04-29T13:19:28;17.76;66.15
69281;SHT31;56392;51.082;17.080;2023-04-29T13:24:51;17.83;64.01
69281;SHT31;56392;51.082;17.080;2023-04-29T13:30:14;17.74;64.36
69281;SHT31;56392;51.082;17.080;2023-04-29T13:35:38;17.66;64.14
69281;SHT31;56392;51.082;17.080;2023-04-29T13:41:02;17.62;63.68
69281;SHT31;56392;51.082;17.080;2023-04-29T13:46:25;17.56;63.93
69281;SHT31;56392;51.082;17.080;2023-04-29T13:51:50;17.52;64.27
69281;SHT31;56392;51.082;17.080;2023-04-29T13:57:13;17.53;64.21
69281;SHT31;56392;51.082;17.080;2023-04-29T14:02:36;17.57;64.37
69281;SHT31;56392;51.082;17.080;2023-04-29T14:08:01;17.53;64.17
69281;SHT31;56392;51.082;17.080;2023-04-29T14:13:24;17.62;64.36
69281;SHT31;56392;51.082;17.080;2023-04-29T14:18:47;17.70;64.23
69281;SHT31;56392;51.082;17.080;2023-04-29T14:24:12;17.66;63.90
69281;SHT31;56392;51.082;17.080;2023-04-29T14:29:35;17.70;63.80
69281;SHT31;56392;51.082;17.080;2023-04-29T14:34:58;17.73;64.23
69281;SHT31;56392;51.082;17.080;2023-04-29T14:40:22;17.72;63.73
69281;SHT31;56392;51.082;17.080;2023-04-29T14:45:45;17.67;63.75
69281;SHT31;56392;51.082;17.080;2023-04-29T14:51:09;17.60;63.09
69281;SHT31;56392;51.082;17.080;2023-04-29T14:56:33;17.49;62.99
69281;SHT31;56392;51.082;17.080;2023-04-29T15:01:58;17.46;63.43
69281;SHT31;56392;51.082;17.080;2023-04-29T15:07:21;17.43;63.75
69281;SHT31;56392;51.082;17.080;2023-04-29T15:12:46;17.36;64.74
69281;SHT31;56392;51.082;17.080;2023-04-29T15:18:09;17.21;67.83
69281;SHT31;56392;51.082;17.080;2023-04-29T15:23:32;17.14;69.85
69281;SHT31;56392;51.082;17.080;2023-04-29T15:28:58;16.82;70.92
69281;SHT31;56392;51.082;17.080;2023-04-29T15:34:21;16.49;70.87
69281;SHT31;56392;51.082;17.080;2023-04-29T15:39:44;16.13;71.14
69281;SHT31;56392;51.082;17.080;2023-04-29T15:45:10;15.96;72.17
69281;SHT31;56392;51.082;17.080;2023-04-29T15:50:33;15.89;73.29
69281;SHT31;56392;51.082;17.080;2023-04-29T15:55:56;15.78;73.66
69281;SHT31;56392;51.082;17.080;2023-04-29T16:01:20;15.71;74.03
69281;SHT31;56392;51.082;17.080;2023-04-29T16:06:44;15.68;74.70
69281;SHT31;56392;51.082;17.080;2023-04-29T16:12:07;15.68;75.27
69281;SHT31;56392;51.082;17.080;2023-04-29T16:17:33;15.69;75.63
69281;SHT31;56392;51.082;17.080;2023-04-29T16:22:56;15.66;75.75
69281;SHT31;56392;51.082;17.080;2023-04-29T16:28:19;15.61;75.96
69281;SHT31;56392;51.082;17.080;2023-04-29T16:33:43;15.48;75.87
69281;SHT31;56392;51.082;17.080;2023-04-29T16:39:06;15.37;76.20
69281;SHT31;56392;51.082;17.080;2023-04-29T16:44:29;15.26;76.33
69281;SHT31;56392;51.082;17.080;2023-04-29T16:49:54;15.16;76.62
69281;SHT31;56392;51.082;17.080;2023-04-29T16:55:18;15.03;76.68
69281;SHT31;56392;51.082;17.080;2023-04-29T17:00:41;14.94;77.01
69281;SHT31;56392;51.082;17.080;2023-04-29T17:06:05;14.91;76.78
69281;SHT31;56392;51.082;17.080;2023-04-29T17:11:28;14.90;76.93
69281;SHT31;56392;51.082;17.080;2023-04-29T17:16:51;14.87;77.01
69281;SHT31;56392;51.082;17.080;2023-04-29T17:22:16;14.91;76.93
69281;SHT31;56392;51.082;17.080;2023-04-29T17:27:41;14.79;77.57
69281;SHT31;56392;51.082;17.080;2023-04-29T17:33:04;14.68;76.70
69281;SHT31;56392;51.082;17.080;2023-04-29T17:38:29;14.68;76.44
69281;SHT31;56392;51.082;17.080;2023-04-29T17:43:53;14.60;75.97
69281;SHT31;56392;51.082;17.080;2023-04-29T17:49:17;14.58;75.94
69281;SHT31;56392;51.082;17.080;2023-04-29T17:54:43;14.43;76.21
69281;SHT31;56392;51.082;17.080;2023-04-29T18:00:07;14.26;76.08
69281;SHT31;56392;51.082;17.080;2023-04-29T18:05:31;14.21;75.92
69281;SHT31;56392;51.082;17.080;2023-04-29T18:10:56;14.09;76.06
69281;SHT31;56392;51.082;17.080;2023-04-29T18:16:19;14.04;76.07
69281;SHT31;56392;51.082;17.080;2023-04-29T18:21:42;13.95;76.17
69281;SHT31;56392;51.082;17.080;2023-04-29T18:27:07;13.92;76.14
69281;SHT31;56392;51.082;17.080;2023-04-29T18:32:29;13.85;76.49
69281;SHT31;56392;51.082;17.080;2023-04-29T18:37:52;13.87;76.53
69281;SHT31;56392;51.082;17.080;2023-04-29T18:43:17;13.80;76.38
69281;SHT31;56392;51.082;17.080;2023-04-29T18:48:45;13.75;76.42
69281;SHT31;56392;51.082;17.080;2023-04-29T18:54:08;13.66;76.84
69281;SHT31;56392;51.082;17.080;2023-04-29T18:59:32;13.59;76.96
69281;SHT31;56392;51.082;17.080;2023-04-29T19:04:58;13.53;77.51
69281;SHT31;56392;51.082;17.080;2023-04-29T19:10:26;13.51;77.28
69281;SHT31;56392;51.082;17.080;2023-04-29T19:15:50;13.51;77.13
69281;SHT31;56392;51.082;17.080;2023-04-29T19:21:16;13.53;77.10
69281;SHT31;56392;51.082;17.080;2023-04-29T19:26:40;13.53;77.23
69281;SHT31;56392;51.082;17.080;2023-04-29T19:32:05;13.47;77.35
69281;SHT31;56392;51.082;17.080;2023-04-29T19:37:28;13.49;77.41
69281;SHT31;56392;51.082;17.080;2023-04-29T19:42:51;13.44;77.44
69281;SHT31;56392;51.082;17.080;2023-04-29T19:48:16;13.44;77.47
69281;SHT31;56392;51.082;17.080;2023-04-29T19:53:39;13.43;78.09
69281;SHT31;56392;51.082;17.080;2023-04-29T19:59:02;13.40;78.35
69281;SHT31;56392;51.082;17.080;2023-04-29T20:04:27;13.37;78.81
69281;SHT31;56392;51.082;17.080;2023-04-29T20:09:50;13.29;78.75
69281;SHT31;56392;51.082;17.080;2023-04-29T20:15:13;13.24;78.76
69281;SHT31;56392;51.082;17.080;2023-04-29T20:20:38;13.24;78.55
69281;SHT31;56392;51.082;17.080;2023-04-29T20:26:01;13.23;78.50
69281;SHT31;56392;51.082;17.080;2023-04-29T20:31:24;13.22;78.36
69281;SHT31;56392;51.082;17.080;2023-04-29T20:36:48;13.20;78.22
69281;SHT31;56392;51.082;17.080;2023-04-29T20:42:11;13.24;78.08
69281;SHT31;56392;51.082;17.080;2023-04-29T20:47:34;13.29;77.90
69281;SHT31;56392;51.082;17.080;2023-04-29T20:52:59;13.24;77.51
69281;SHT31;56392;51.082;17.080;2023-04-29T20:58:22;13.16;77.49
69281;SHT31;56392;51.082;17.080;2023-04-29T21:03:45;13.12;77.51
69281;SHT31;56392;51.082;17.080;2023-04-29T21:09:10;13.09;77.17
69281;SHT31;56392;51.082;17.080;2023-04-29T21:14:33;13.10;77.13
69281;SHT31;56392;51.082;17.080;2023-04-29T21:19:58;13.09;76.81
69281;SHT31;56392;51.082;17.080;2023-04-29T21:25:22;13.02;76.32
69281;SHT31;56392;51.082;17.080;2023-04-29T21:30:46;12.99;76.32
69281;SHT31;56392;51.082;17.080;2023-04-29T21:36:09;12.98;76.49
69281;SHT31;56392;51.082;17.080;2023-04-29T21:41:35;12.89;76.66
69281;SHT31;56392;51.082;17.080;2023-04-29T21:46:58;12.88;76.63
69281;SHT31;56392;51.082;17.080;2023-04-29T21:52:22;12.91;76.57
69281;SHT31;56392;51.082;17.080;2023-04-29T21:57:47;12.87;76.60
69281;SHT31;56392;51.082;17.080;2023-04-29T22:03:10;12.84;76.47
69281;SHT31;56392;51.082;17.080;2023-04-29T22:08:33;12.81;76.09
69281;SHT31;56392;51.082;17.080;2023-04-29T22:13:57;12.81;75.83
69281;SHT31;56392;51.082;17.080;2023-04-29T22:19:20;12.78;75.09
69281;SHT31;56392;51.082;17.080;2023-04-29T22:24:44;12.71;74.53
69281;SHT31;56392;51.082;17.080;2023-04-29T22:30:09;12.65;73.52
69281;SHT31;56392;51.082;17.080;2023-04-29T22:35:32;12.62;73.26
69281;SHT31;56392;51.082;17.080;2023-04-29T22:40:56;12.57;73.01
69281;SHT31;56392;51.082;17.080;2023-04-29T22:46:20;12.54;72.38
69281;SHT31;56392;51.082;17.080;2023-04-29T22:51:43;12.51;71.86
69281;SHT31;56392;51.082;17.080;2023-04-29T22:57:06;12.45;71.66
69281;SHT31;56392;51.082;17.080;2023-04-29T23:02:30;12.44;70.99
69281;SHT31;56392;51.082;17.080;2023-04-29T23:07:53;12.40;70.74
69281;SHT31;56392;51.082;17.080;2023-04-29T23:13:17;12.34;70.60
69281;SHT31;56392;51.082;17.080;2023-04-29T23:18:41;12.31;70.17
69281;SHT31;56392;51.082;17.080;2023-04-29T23:24:04;12.30;70.26
69281;SHT31;56392;51.082;17.080;2023-04-29T23:29:30;12.34;70.55
69281;SHT31;56392;51.082;17.080;2023-04-29T23:34:54;12.33;70.53
69281;SHT31;56392;51.082;17.080;2023-04-29T23:40:18;12.30;70.31
69281;SHT31;56392;51.082;17.080;2023-04-29T23:45:42;12.30;70.18
69281;SHT31;56392;51.082;17.080;2023-04-29T23:51:07;12.24;69.98
69281;SHT31;56392;51.082;17.080;2023-04-29T23:56:30;12.26;70.03
